Time;durP1;ratioP1;P1;durP2;ratioP2;P2;SDS_P1;SDS_P2;PMS_P1;PMS_P2;Temp;Humidity;BMP_temperature;BMP_pressure;BME280_temperature;BME280_humidity;BME280_pressure;Samples;Min_cycle;Max_cycle;Signal;HPM_P1;HPM_P2
2022/11/13 00:02:09;;;;;;;148.13;13.55;;;;;;;8.83;68.76;98229.59;4865061;28;20206;-75
2022/11/13 00:04:34;;;;;;;144.20;14.32;;;;;;;8.81;68.59;98222.81;4865680;28;20284;-75
2022/11/13 00:07:00;;;;;;;103.50;11.32;;;;;;;8.88;68.70;98219.41;4884845;28;20171;-75
2022/11/13 00:09:25;;;;;;;189.73;16.08;;;;;;;8.81;68.47;98217.63;4865722;28;20198;-75
2022/11/13 00:11:50;;;;;;;129.70;13.63;;;;;;;8.78;69.04;98212.03;4882575;28;20293;-75
2022/11/13 00:14:16;;;;;;;145.75;13.55;;;;;;;8.75;68.84;98218.44;4868036;28;20185;-75
2022/11/13 00:16:41;;;;;;;126.00;11.48;;;;;;;8.78;68.99;98212.81;4867135;28;20202;-75
2022/11/13 00:19:06;;;;;;;130.70;12.60;;;;;;;8.76;68.11;98204.44;4866502;29;20190;-75
2022/11/13 00:21:32;;;;;;;183.75;16.55;;;;;;;8.65;68.58;98205.09;4881418;28;20210;-75
2022/11/13 00:23:57;;;;;;;62.03;7.32;;;;;;;8.55;68.86;98209.91;4867711;28;20233;-75
2022/11/13 00:26:25;;;;;;;84.25;10.05;;;;;;;8.59;69.05;98200.72;4849929;29;20653;-75
2022/11/13 00:28:55;;;;;;;51.70;7.32;;;;;;;8.61;69.20;98204.69;4867355;28;20566;-75
2022/11/13 00:31:21;;;;;;;64.65;8.13;;;;;;;8.51;68.41;98195.75;4865786;28;20568;-75
2022/11/13 00:33:46;;;;;;;182.30;15.65;;;;;;;8.45;68.86;98197.41;4881702;28;20278;-75
2022/11/13 00:36:21;;;;;;;197.07;16.60;;;;;;;8.42;69.05;98195.16;4865742;29;20215;-75
2022/11/13 00:38:47;;;;;;;56.08;6.72;;;;;;;8.41;68.88;98186.59;4868287;28;20178;-75
2022/11/13 00:41:12;;;;;;;123.18;11.38;;;;;;;8.40;68.80;98192.78;4882837;28;20206;-75
2022/11/13 00:43:38;;;;;;;67.43;8.15;;;;;;;8.35;68.81;98186.63;4849548;29;20104;-75
2022/11/13 00:46:04;;;;;;;127.25;11.73;;;;;;;8.36;69.02;98189.00;4877677;28;20589;-75
2022/11/13 00:48:29;;;;;;;114.80;11.95;;;;;;;8.29;68.93;98183.03;4865356;29;20214;-74
2022/11/13 00:50:54;;;;;;;105.90;10.77;;;;;;;8.36;68.60;98176.03;4863260;28;20232;-75
2022/11/13 00:53:20;;;;;;;99.03;8.93;;;;;;;8.18;69.14;98175.88;4847878;29;20187;-75
2022/11/13 00:55:45;;;;;;;151.68;14.57;;;;;;;8.07;69.21;98179.88;4850156;29;20222;-75
2022/11/13 00:58:12;;;;;;;131.05;12.48;;;;;;;8.18;69.64;98181.84;4867619;28;20660;-75
2022/11/13 01:00:39;;;;;;;5.80;3.55;;;;;;;8.36;68.63;98181.22;4850382;28;20288;-75
2022/11/13 01:03:04;;;;;;;48.63;6.30;;;;;;;8.26;69.19;98183.44;4865699;29;20199;-75
2022/11/13 01:05:29;;;;;;;142.00;12.30;;;;;;;8.27;69.18;98186.84;4864729;29;20229;-75
2022/11/13 01:07:55;;;;;;;164.65;13.82;;;;;;;8.18;68.56;98191.44;4865306;29;20253;-75
2022/11/13 01:10:21;;;;;;;7.32;3.08;;;;;;;8.31;68.59;98188.81;4865017;28;20291;-75
2022/11/13 01:12:46;;;;;;;15.45;3.60;;;;;;;8.43;68.45;98189.81;4866423;28;20205;-74
2022/11/13 01:15:11;;;;;;;137.25;11.65;;;;;;;8.28;68.44;98185.81;4865173;28;20281;-75
2022/11/13 01:17:37;;;;;;;37.08;4.75;;;;;;;8.18;68.80;98178.47;4866247;29;20703;-75
2022/11/13 01:20:03;;;;;;;133.63;11.50;;;;;;;8.23;68.82;98183.84;4849775;29;20269;-75
2022/11/13 01:22:29;;;;;;;118.63;10.82;;;;;;;8.14;69.08;98185.88;4883587;28;20356;-75
2022/11/13 01:24:54;;;;;;;75.60;8.15;;;;;;;8.12;69.17;98181.88;4867916;28;20183;-75
2022/11/13 01:27:20;;;;;;;75.45;7.95;;;;;;;8.03;68.79;98181.28;4864333;29;20332;-75
2022/11/13 01:29:45;;;;;;;64.22;8.43;;;;;;;8.09;68.64;98177.09;4848450;29;20304;-74
2022/11/13 01:32:10;;;;;;;88.65;10.32;;;;;;;8.21;68.10;98188.44;4867098;28;20275;-75
2022/11/13 01:34:35;;;;;;;106.95;10.45;;;;;;;7.95;68.31;98181.50;4880217;28;20372;-75
2022/11/13 01:37:01;;;;;;;150.77;12.65;;;;;;;7.86;68.99;98184.34;4867745;28;20377;-75
2022/11/13 01:39:26;;;;;;;61.03;6.97;;;;;;;7.99;68.46;98183.50;4885468;28;20293;-75
2022/11/13 01:41:52;;;;;;;90.85;8.40;;;;;;;7.79;68.98;98186.09;4880458;28;20202;-75
2022/11/13 01:44:18;;;;;;;91.93;7.97;;;;;;;7.71;69.04;98180.34;4866566;28;20322;-75
2022/11/13 01:46:47;;;;;;;72.72;9.82;;;;;;;7.85;69.06;98174.16;4882931;28;20281;-75
2022/11/13 01:49:27;;;;;;;131.45;12.38;;;;;;;7.83;68.80;98174.34;4865301;28;20206;-74
2022/11/13 01:51:59;;;;;;;90.50;8.80;;;;;;;7.77;69.19;98174.38;4870221;28;20191;-75
2022/11/13 01:54:30;;;;;;;101.75;10.95;;;;;;;7.73;68.93;98170.56;4857715;29;20634;-75
2022/11/13 01:56:57;;;;;;;96.13;10.40;;;;;;;7.75;69.05;98169.38;4887451;28;20274;-75
2022/11/13 01:59:34;;;;;;;83.20;8.87;;;;;;;7.86;68.68;98157.59;4882207;28;20609;-75
2022/11/13 02:01:59;;;;;;;126.85;12.85;;;;;;;7.66;69.58;98155.03;4879165;28;20205;-75
2022/11/13 02:04:26;;;;;;;37.38;9.65;;;;;;;7.74;69.00;98154.03;4865557;28;20202;-75
2022/11/13 02:06:55;;;;;;;100.68;11.52;;;;;;;7.59;69.20;98155.03;4869740;29;20194;-75
2022/11/13 02:09:26;;;;;;;35.65;5.88;;;;;;;7.85;68.85;98148.22;4881422;28;20592;-76
2022/11/13 02:11:52;;;;;;;35.72;8.13;;;;;;;7.72;68.91;98145.66;4869872;28;20322;-76
2022/11/13 02:14:19;;;;;;;110.80;12.88;;;;;;;7.58;69.09;98143.06;4870420;29;20259;-75
2022/11/13 02:16:47;;;;;;;48.50;7.53;;;;;;;7.66;69.50;98148.06;4871840;28;20207;-75
2022/11/13 02:19:18;;;;;;;121.15;11.82;;;;;;;7.64;69.36;98144.88;4855137;29;20298;-76
2022/11/13 02:21:54;;;;;;;49.60;7.15;;;;;;;7.85;69.05;98137.84;4875539;28;20373;-76
2022/11/13 02:24:23;;;;;;;61.20;9.82;;;;;;;7.71;68.98;98129.31;4869572;29;20219;-75
2022/11/13 02:26:50;;;;;;;48.08;8.50;;;;;;;7.73;69.07;98127.31;4869903;29;20361;-75
2022/11/13 02:29:15;;;;;;;56.15;9.18;;;;;;;7.66;69.11;98124.72;4869368;29;20197;-75
2022/11/13 02:31:40;;;;;;;44.83;10.68;;;;;;;7.71;68.84;98131.09;4869633;29;20797;-75
2022/11/13 02:34:06;;;;;;;160.63;18.20;;;;;;;7.69;68.66;98124.31;4897177;28;20708;-76
2022/11/13 02:36:31;;;;;;;19.40;5.72;;;;;;;7.69;68.83;98115.72;4853506;28;20494;-75
2022/11/13 02:39:03;;;;;;;25.92;5.13;;;;;;;7.80;68.67;98116.94;4869453;28;20202;-76
2022/11/13 02:41:28;;;;;;;32.03;5.53;;;;;;;7.64;68.84;98118.13;4871618;29;20169;-76
2022/11/13 02:43:54;;;;;;;106.45;11.52;;;;;;;7.57;69.39;98112.16;4885673;28;20732;-75
2022/11/13 02:46:19;;;;;;;118.65;14.93;;;;;;;7.62;69.29;98113.16;4874015;28;20725;-75
2022/11/13 02:48:44;;;;;;;164.48;14.73;;;;;;;7.44;68.97;98113.00;4866083;29;20267;-75
2022/11/13 02:51:10;;;;;;;66.60;9.82;;;;;;;7.66;69.23;98113.56;4853233;29;20177;-76
2022/11/13 02:53:35;;;;;;;64.00;7.78;;;;;;;7.64;68.65;98112.94;4869425;29;20196;-76
2022/11/13 02:56:00;;;;;;;97.57;10.68;;;;;;;7.54;68.86;98110.78;4870742;28;20218;-75
2022/11/13 02:58:26;;;;;;;188.50;17.88;;;;;;;7.50;69.11;98100.03;4870576;28;20231;-75
2022/11/13 03:00:51;;;;;;;151.30;14.95;;;;;;;7.45;68.83;98099.03;4869385;29;20203;-75
2022/11/13 03:03:16;;;;;;;156.52;16.50;;;;;;;7.37;69.69;98102.63;4884379;28;20217;-76
2022/11/13 03:05:42;;;;;;;118.50;12.32;;;;;;;7.37;69.40;98091.44;4901094;28;20210;-75
2022/11/13 03:08:07;;;;;;;30.13;5.65;;;;;;;7.32;69.68;98097.25;4884672;28;20630;-75
2022/11/13 03:10:32;;;;;;;92.60;9.18;;;;;;;7.42;69.26;98096.81;4870526;28;20195;-75
2022/11/13 03:12:58;;;;;;;69.20;7.45;;;;;;;7.47;69.24;98091.84;4869170;28;20171;-75
2022/11/13 03:15:23;;;;;;;140.70;13.60;;;;;;;7.42;68.37;98083.88;4885041;28;20293;-75
2022/11/13 03:17:48;;;;;;;166.52;15.60;;;;;;;7.30;69.06;98092.25;4869464;28;20192;-76
2022/11/13 03:20:14;;;;;;;253.82;23.05;;;;;;;7.22;69.55;98087.28;4897458;28;20341;-75
2022/11/13 03:22:39;;;;;;;225.00;19.50;;;;;;;7.21;69.48;98083.09;4868778;29;20231;-75
2022/11/13 03:25:05;;;;;;;42.72;6.60;;;;;;;7.22;69.28;98083.91;4896769;28;20731;-75
2022/11/13 03:27:31;;;;;;;144.43;12.95;;;;;;;7.23;69.15;98081.13;4868237;29;20789;-75
2022/11/13 03:29:57;;;;;;;105.75;13.07;;;;;;;7.20;69.58;98078.13;4896264;28;20218;-75
2022/11/13 03:32:22;;;;;;;89.03;9.98;;;;;;;7.22;69.42;98074.34;4868876;28;20175;-76
2022/11/13 03:34:48;;;;;;;58.05;8.50;;;;;;;7.07;69.21;98077.13;4868913;29;20211;-75
2022/11/13 03:37:13;;;;;;;181.13;17.02;;;;;;;6.99;69.86;98079.09;4869703;29;20239;-76
2022/11/13 03:39:38;;;;;;;90.28;11.30;;;;;;;7.00;69.97;98073.72;4891041;28;20356;-76
2022/11/13 03:42:04;;;;;;;247.68;22.10;;;;;;;6.97;70.13;98074.13;4878494;28;20728;-75
2022/11/13 03:44:29;;;;;;;99.18;10.15;;;;;;;7.11;69.38;98077.50;4899863;28;20580;-75
2022/11/13 03:46:54;;;;;;;90.97;11.70;;;;;;;7.13;69.67;98070.38;4851204;29;20255;-75
2022/11/13 03:49:20;;;;;;;191.70;19.67;;;;;;;6.96;69.19;98074.31;4865435;29;20302;-76
2022/11/13 03:51:45;;;;;;;188.23;19.40;;;;;;;6.84;69.71;98072.34;4883150;28;20185;-75
2022/11/13 03:54:10;;;;;;;54.13;9.57;;;;;;;7.05;69.47;98078.31;4884224;28;20273;-75
2022/11/13 03:56:36;;;;;;;154.20;15.80;;;;;;;6.96;69.85;98067.38;4868108;29;20248;-75
2022/11/13 03:59:01;;;;;;;61.97;11.10;;;;;;;7.09;69.75;98058.78;4867821;29;20361;-76
2022/11/13 04:01:26;;;;;;;59.97;9.90;;;;;;;7.09;69.49;98064.78;4870018;28;20223;-76
2022/11/13 04:03:52;;;;;;;66.60;8.10;;;;;;;7.08;69.42;98062.41;4867938;29;20231;-75
2022/11/13 04:06:17;;;;;;;105.88;12.82;;;;;;;6.92;70.10;98048.84;4869501;28;20290;-75
2022/11/13 04:08:42;;;;;;;178.50;16.17;;;;;;;6.80;69.79;98055.59;4867373;28;20653;-75
2022/11/13 04:11:10;;;;;;;129.98;14.68;;;;;;;6.84;69.17;98056.00;4896289;28;20219;-75
2022/11/13 04:13:35;;;;;;;154.13;15.98;;;;;;;6.78;70.09;98054.22;4892304;28;20707;-76
2022/11/13 04:16:00;;;;;;;105.55;11.52;;;;;;;6.92;69.62;98048.84;4879603;28;20361;-75
2022/11/13 04:18:26;;;;;;;30.83;5.07;;;;;;;6.93;69.21;98047.03;4868361;28;20207;-75
2022/11/13 04:20:51;;;;;;;46.97;6.38;;;;;;;6.90;68.55;98043.03;4853505;28;20124;-76
2022/11/13 04:23:17;;;;;;;23.83;4.75;;;;;;;6.96;68.75;98038.06;4867871;29;20210;-75
2022/11/13 04:25:43;;;;;;;45.05;7.25;;;;;;;6.94;68.76;98036.50;4872570;28;20174;-75
2022/11/13 04:28:09;;;;;;;42.40;6.18;;;;;;;6.93;69.19;98034.09;4851227;29;20207;-75
2022/11/13 04:30:35;;;;;;;39.20;6.47;;;;;;;6.88;68.82;98032.09;4852104;29;20198;-76
2022/11/13 04:33:00;;;;;;;47.55;7.22;;;;;;;6.93;68.33;98029.72;4867582;29;20287;-75
2022/11/13 04:35:25;;;;;;;106.65;9.95;;;;;;;6.85;68.27;98027.31;4899559;28;20793;-75
2022/11/13 04:37:51;;;;;;;66.65;9.00;;;;;;;6.94;68.78;98026.13;4896755;28;20684;-75
2022/11/13 04:40:17;;;;;;;91.05;10.73;;;;;;;6.94;68.22;98022.75;4852038;29;20285;-75
2022/11/13 04:42:48;;;;;;;101.68;9.88;;;;;;;6.82;68.24;98026.91;4848887;29;20199;-75
2022/11/13 04:45:22;;;;;;;172.05;13.52;;;;;;;6.81;69.44;98022.75;4866610;28;20449;-75
2022/11/13 04:47:48;;;;;;;50.28;6.43;;;;;;;6.79;68.87;98022.94;4880711;28;20164;-75
2022/11/13 04:50:14;;;;;;;97.72;9.38;;;;;;;6.81;68.74;98027.94;4866566;29;20660;-75
2022/11/13 04:52:40;;;;;;;48.47;7.05;;;;;;;6.93;68.27;98016.78;4866859;28;20653;-75
2022/11/13 04:55:05;;;;;;;58.63;7.57;;;;;;;6.91;67.93;98021.34;4869476;28;20200;-75
2022/11/13 04:57:31;;;;;;;15.50;6.70;;;;;;;6.93;68.91;98016.78;4866906;29;20218;-75
2022/11/13 04:59:56;;;;;;;81.55;17.38;;;;;;;6.89;68.72;98020.75;4867546;29;20319;-75
2022/11/13 05:02:22;;;;;;;124.18;12.93;;;;;;;6.86;68.17;98018.56;4850933;29;20195;-75
2022/11/13 05:04:47;;;;;;;40.00;6.90;;;;;;;6.86;69.06;98008.22;4897410;28;20480;-75
2022/11/13 05:07:13;;;;;;;22.58;5.30;;;;;;;6.91;68.19;98011.00;4865725;28;20198;-75
2022/11/13 05:09:38;;;;;;;100.70;15.75;;;;;;;6.83;68.28;98013.78;4867066;28;20195;-75
2022/11/13 05:12:06;;;;;;;77.55;9.55;;;;;;;6.87;68.28;98015.00;4867601;28;20112;-75
2022/11/13 05:14:36;;;;;;;113.95;13.43;;;;;;;6.81;68.32;98007.22;4865878;29;20347;-75
2022/11/13 05:17:02;;;;;;;184.50;18.15;;;;;;;6.71;68.54;98000.63;4890230;28;20835;-75
2022/11/13 05:19:28;;;;;;;33.70;6.90;;;;;;;6.72;68.69;98004.81;4877703;28;20301;-75
2022/11/13 05:21:53;;;;;;;96.43;13.75;;;;;;;6.69;69.03;98001.84;4882323;28;20343;-75
2022/11/13 05:24:18;;;;;;;175.48;16.73;;;;;;;6.62;68.78;97993.28;4895827;28;20227;-75
2022/11/13 05:26:44;;;;;;;83.10;10.00;;;;;;;6.65;68.90;97998.03;4894524;28;20208;-75
2022/11/13 05:29:09;;;;;;;214.68;18.00;;;;;;;6.49;68.86;97997.44;4866551;29;20199;-75
2022/11/13 05:31:35;;;;;;;193.80;17.20;;;;;;;6.45;69.25;97992.88;4878516;28;20201;-75
2022/11/13 05:34:03;;;;;;;116.68;13.35;;;;;;;6.56;69.26;97993.09;4851369;29;20376;-75
2022/11/13 05:36:28;;;;;;;87.72;9.30;;;;;;;6.43;69.16;97981.94;4879517;28;20170;-75
2022/11/13 05:38:54;;;;;;;86.15;10.00;;;;;;;6.59;68.73;97985.91;4867920;28;20198;-75
2022/11/13 05:41:20;;;;;;;162.40;16.80;;;;;;;6.37;69.60;97986.06;4877583;28;20225;-75
2022/11/13 05:43:46;;;;;;;232.98;19.55;;;;;;;6.18;69.66;97987.63;4861179;29;20273;-75
2022/11/13 05:46:20;;;;;;;196.45;17.75;;;;;;;6.40;69.10;97982.31;4876355;28;20261;-75
2022/11/13 05:48:46;;;;;;;309.85;27.00;;;;;;;6.14;69.52;97974.31;4862771;28;20215;-75
2022/11/13 05:51:21;;;;;;;296.50;26.23;;;;;;;6.08;69.83;97972.50;4893644;28;20693;-75
2022/11/13 05:53:46;;;;;;;159.98;16.63;;;;;;;6.17;69.55;97979.09;4868866;28;20317;-76
2022/11/13 05:56:15;;;;;;;153.85;13.20;;;;;;;6.15;69.82;97978.50;4866522;29;20370;-75
2022/11/13 05:58:41;;;;;;;125.57;13.32;;;;;;;6.07;69.78;97968.34;4877923;28;20561;-76
2022/11/13 06:01:14;;;;;;;201.70;17.73;;;;;;;6.22;69.12;97975.13;4876890;28;20320;-75
2022/11/13 06:03:39;;;;;;;60.58;9.77;;;;;;;6.15;69.34;97975.91;4865880;28;20239;-75
2022/11/13 06:06:08;;;;;;;41.53;8.35;;;;;;;6.25;69.08;97972.13;4867159;29;20563;-75
2022/11/13 06:08:33;;;;;;;89.32;12.93;;;;;;;6.27;69.30;97970.16;4848118;28;20693;-76
2022/11/13 06:11:00;;;;;;;105.72;11.93;;;;;;;6.17;69.24;97963.56;4849935;29;20215;-75
2022/11/13 06:13:26;;;;;;;90.47;14.30;;;;;;;6.26;69.12;97955.66;4881721;28;20211;-75
2022/11/13 06:15:51;;;;;;;95.05;11.55;;;;;;;6.27;68.82;97962.38;4865823;29;20205;-76
2022/11/13 06:18:22;;;;;;;127.32;15.10;;;;;;;6.26;69.25;97963.41;4864155;29;20211;-76
2022/11/13 06:20:47;;;;;;;128.32;13.68;;;;;;;6.13;69.23;97959.78;4890298;28;20322;-75
2022/11/13 06:23:12;;;;;;;138.32;13.35;;;;;;;6.11;68.88;97960.97;4892022;28;20855;-75
2022/11/13 06:25:37;;;;;;;126.05;12.82;;;;;;;6.19;68.85;97961.59;4869733;28;20706;-76
2022/11/13 06:28:03;;;;;;;201.57;16.60;;;;;;;6.10;68.25;97957.59;4890709;28;20657;-76
2022/11/13 06:30:28;;;;;;;217.98;20.08;;;;;;;6.06;69.46;97951.22;4863946;28;20290;-76
2022/11/13 06:32:53;;;;;;;177.48;16.38;;;;;;;5.90;69.03;97946.38;4897678;28;20206;-75
2022/11/13 06:35:19;;;;;;;125.40;10.77;;;;;;;5.93;69.04;97951.97;4868470;29;20229;-75
2022/11/13 06:37:44;;;;;;;119.68;10.77;;;;;;;5.97;69.59;97944.63;4880275;28;20597;-76
2022/11/13 06:40:11;;;;;;;227.75;17.75;;;;;;;5.92;68.61;97940.03;4865745;28;20197;-75
2022/11/13 06:42:36;;;;;;;116.00;11.40;;;;;;;5.91;69.74;97950.53;4868932;29;20196;-75
2022/11/13 06:45:03;;;;;;;122.25;12.40;;;;;;;5.96;68.76;97946.44;4883925;28;20627;-76
2022/11/13 06:47:28;;;;;;;57.00;7.30;;;;;;;6.00;69.44;97942.47;4867806;29;20168;-75
2022/11/13 06:49:53;;;;;;;43.63;7.90;;;;;;;6.06;68.42;97940.88;4869362;29;20614;-75
2022/11/13 06:52:19;;;;;;;118.45;12.18;;;;;;;5.97;68.61;97936.88;4871533;29;20222;-76
2022/11/13 06:54:44;;;;;;;150.00;15.02;;;;;;;5.91;68.90;97937.63;4891101;28;20206;-76
2022/11/13 06:57:09;;;;;;;88.25;10.20;;;;;;;5.89;68.93;97934.44;4897032;28;20278;-75
2022/11/13 06:59:35;;;;;;;81.68;10.35;;;;;;;5.90;68.45;97933.47;4869315;28;20380;-75
2022/11/13 07:02:01;;;;;;;89.75;10.38;;;;;;;5.93;68.04;97930.47;4897296;28;20532;-75
2022/11/13 07:04:26;;;;;;;102.50;11.50;;;;;;;5.82;68.60;97926.66;4885247;28;20642;-76
2022/11/13 07:06:52;;;;;;;110.57;11.18;;;;;;;5.82;68.56;97921.50;4874432;28;20200;-75
2022/11/13 07:09:17;;;;;;;95.60;10.02;;;;;;;5.78;68.92;97928.84;4885052;28;20191;-75
2022/11/13 07:11:42;;;;;;;104.70;23.08;;;;;;;5.74;68.55;97932.81;4894524;28;20202;-75
2022/11/13 07:14:10;;;;;;;131.55;18.48;;;;;;;5.86;68.38;97924.50;4879306;28;20167;-76
2022/11/13 07:16:36;;;;;;;72.20;11.88;;;;;;;5.82;69.05;97931.84;4861356;29;20199;-75
2022/11/13 07:19:01;;;;;;;68.35;9.35;;;;;;;5.88;68.04;97932.84;4890796;28;20206;-76
2022/11/13 07:21:26;;;;;;;54.97;8.52;;;;;;;5.78;68.52;97926.28;4868339;28;20214;-76
2022/11/13 07:23:52;;;;;;;61.65;8.43;;;;;;;5.86;69.33;97924.50;4853409;29;20207;-76
2022/11/13 07:26:17;;;;;;;34.88;10.40;;;;;;;5.97;68.83;97929.91;4870315;29;20180;-75
2022/11/13 07:28:42;;;;;;;105.57;14.40;;;;;;;5.88;69.02;97925.91;4852888;29;20574;-75
2022/11/13 07:31:10;;;;;;;54.42;11.32;;;;;;;6.07;69.11;97926.97;4898317;28;20225;-76
2022/11/13 07:33:35;;;;;;;66.72;12.93;;;;;;;6.00;68.89;97921.00;4868362;28;20211;-76
2022/11/13 07:36:00;;;;;;;113.95;18.27;;;;;;;5.93;69.72;97918.38;4883293;28;20198;-75
2022/11/13 07:38:26;;;;;;;96.72;15.77;;;;;;;6.06;68.75;97927.94;4866050;28;20275;-76
2022/11/13 07:40:51;;;;;;;89.45;14.90;;;;;;;6.15;68.57;97919.03;4882170;28;20555;-75
2022/11/13 07:43:16;;;;;;;82.55;15.80;;;;;;;6.15;68.35;97919.03;4852102;29;20176;-75
2022/11/13 07:45:42;;;;;;;140.75;19.60;;;;;;;6.18;68.32;97923.00;4869320;28;20183;-75
2022/11/13 07:48:08;;;;;;;69.50;13.13;;;;;;;6.31;68.70;97917.84;4887404;28;20250;-75
2022/11/13 07:50:35;;;;;;;24.60;9.35;;;;;;;6.31;68.26;97915.25;4868374;29;20254;-75
2022/11/13 07:53:03;;;;;;;40.50;7.90;;;;;;;6.39;68.27;97916.84;4868073;29;20223;-75
2022/11/13 07:55:29;;;;;;;103.85;9.48;;;;;;;6.36;68.44;97909.50;4896740;28;20254;-75
2022/11/13 07:57:58;;;;;;;42.72;7.15;;;;;;;6.42;68.58;97907.91;4879386;28;20171;-75
2022/11/13 08:00:29;;;;;;;43.08;7.45;;;;;;;6.53;68.23;97920.25;4880109;28;20630;-75
2022/11/13 08:02:54;;;;;;;31.83;11.13;;;;;;;6.49;67.97;97914.66;4884197;28;20215;-75
2022/11/13 08:05:33;;;;;;;47.17;13.20;;;;;;;6.50;67.95;97903.31;4894602;28;20204;-75
2022/11/13 08:07:58;;;;;;;33.15;8.00;;;;;;;6.68;67.99;97902.72;4861850;29;20326;-75
2022/11/13 08:10:23;;;;;;;37.10;8.32;;;;;;;6.67;67.90;97906.28;4880702;28;20631;-76
2022/11/13 08:12:56;;;;;;;65.32;13.27;;;;;;;6.74;68.41;97911.47;4894337;28;20220;-75
2022/11/13 08:15:22;;;;;;;37.70;9.20;;;;;;;6.73;68.38;97910.69;4868173;29;20669;-75
2022/11/13 08:17:55;;;;;;;34.70;9.70;;;;;;;6.88;68.34;97910.44;4869244;29;20202;-75
2022/11/13 08:20:21;;;;;;;26.33;7.55;;;;;;;6.75;69.04;97911.25;4852084;29;20626;-76
2022/11/13 08:22:46;;;;;;;91.93;11.48;;;;;;;6.73;68.93;97908.09;4867633;29;20172;-75
2022/11/13 08:25:12;;;;;;;40.10;8.07;;;;;;;6.74;69.28;97904.47;4890625;28;20207;-76
2022/11/13 08:27:37;;;;;;;75.78;13.48;;;;;;;6.79;69.35;97901.31;4851576;29;20280;-76
2022/11/13 08:30:03;;;;;;;92.25;15.13;;;;;;;6.80;69.31;97896.91;4867712;29;20294;-76
2022/11/13 08:32:28;;;;;;;67.78;11.45;;;;;;;6.88;69.17;97897.50;4873901;28;20196;-75
2022/11/13 08:34:54;;;;;;;25.27;7.07;;;;;;;6.98;69.27;97897.09;4895854;28;20177;-75
2022/11/13 08:37:19;;;;;;;24.65;7.22;;;;;;;7.05;69.08;97897.06;4895138;28;20162;-75
2022/11/13 08:39:44;;;;;;;10.43;6.47;;;;;;;7.26;68.70;97890.81;4869627;28;20207;-76
2022/11/13 08:42:10;;;;;;;7.75;5.93;;;;;;;7.37;68.88;97884.19;4835609;29;20285;-75
2022/11/13 08:44:35;;;;;;;10.77;7.05;;;;;;;7.44;68.89;97883.19;4868602;28;20191;-75
2022/11/13 08:47:00;;;;;;;11.10;6.97;;;;;;;7.47;69.03;97882.78;4832587;29;20164;-75
2022/11/13 08:49:26;;;;;;;10.13;6.05;;;;;;;7.56;68.53;97878.16;4851331;29;20254;-75
2022/11/13 08:51:51;;;;;;;9.82;6.35;;;;;;;7.54;68.59;97872.38;4835621;29;20275;-76
2022/11/13 08:54:16;;;;;;;9.02;6.35;;;;;;;7.69;68.87;97877.25;4851677;29;20203;-75
2022/11/13 08:56:42;;;;;;;9.48;6.22;;;;;;;7.75;69.13;97881.63;4853741;29;20699;-75
2022/11/13 08:59:08;;;;;;;9.05;6.15;;;;;;;7.84;69.17;97870.00;4835836;29;20238;-76
2022/11/13 09:01:33;;;;;;;10.43;5.93;;;;;;;7.97;68.70;97876.91;4867552;28;20082;-75
2022/11/13 09:03:59;;;;;;;9.27;5.97;;;;;;;8.10;68.97;97872.63;4851702;29;20286;-76
2022/11/13 09:06:24;;;;;;;10.38;6.30;;;;;;;8.30;68.11;97867.31;4851222;29;20206;-76
2022/11/13 09:08:50;;;;;;;9.60;6.45;;;;;;;8.40;68.25;97871.00;4851644;29;20215;-76
2022/11/13 09:11:15;;;;;;;10.70;5.85;;;;;;;8.39;67.91;97866.81;4888213;28;20205;-76
2022/11/13 09:13:41;;;;;;;9.57;6.07;;;;;;;8.34;68.58;97853.66;4882752;28;20297;-75
2022/11/13 09:16:06;;;;;;;9.35;5.90;;;;;;;8.49;68.67;97861.16;4851539;29;20219;-76
2022/11/13 09:18:31;;;;;;;9.35;5.43;;;;;;;8.54;68.84;97853.53;4834289;29;20275;-76
2022/11/13 09:21:01;;;;;;;12.00;7.10;;;;;;;8.64;68.70;97850.44;4850759;29;20316;-75
2022/11/13 09:23:27;;;;;;;11.07;7.82;;;;;;;8.72;68.32;97854.56;4834962;29;20276;-75
2022/11/13 09:25:52;;;;;;;9.95;5.97;;;;;;;8.80;68.25;97854.28;4866396;29;20361;-76
2022/11/13 09:28:18;;;;;;;10.27;6.40;;;;;;;8.88;68.34;97858.41;4851057;29;20207;-76
2022/11/13 09:30:43;;;;;;;10.18;7.30;;;;;;;8.80;68.61;97865.44;4866859;29;20285;-76
2022/11/13 09:33:09;;;;;;;15.32;8.93;;;;;;;8.95;68.72;97859.13;4851327;29;20335;-76
2022/11/13 09:35:35;;;;;;;9.30;6.95;;;;;;;8.96;68.69;97863.28;4835196;29;20257;-75
2022/11/13 09:38:00;;;;;;;11.18;7.43;;;;;;;9.08;68.60;97861.59;4851074;29;20286;-76
2022/11/13 09:41:06;;;;;;;13.82;8.60;;;;;;;9.37;68.11;97865.22;4866923;28;20276;-76
2022/11/13 09:43:45;;;;;;;11.40;7.00;;;;;;;9.33;68.90;97856.28;4863578;28;20200;-76
2022/11/13 09:46:17;;;;;;;10.90;7.60;;;;;;;9.33;69.26;97852.88;4834882;29;20290;-76
2022/11/13 09:48:48;;;;;;;12.90;7.90;;;;;;;9.54;68.85;97847.22;4847964;29;20217;-76
2022/11/13 09:51:21;;;;;;;10.93;7.13;;;;;;;9.81;68.80;97854.66;4865756;29;20218;-75
2022/11/13 09:53:47;;;;;;;9.90;6.07;;;;;;;9.83;68.16;97849.22;4875714;28;20629;-76
2022/11/13 09:56:12;;;;;;;13.10;7.18;;;;;;;9.96;67.65;97843.03;4866647;29;20203;-76
2022/11/13 09:58:43;;;;;;;11.32;7.45;;;;;;;10.16;67.27;97832.31;4882583;28;20274;-76
2022/11/13 10:01:16;;;;;;;8.65;6.28;;;;;;;10.55;66.45;97835.28;4865477;28;20266;-76
2022/11/13 10:03:51;;;;;;;9.80;6.57;;;;;;;10.49;66.54;97837.00;4866528;29;20286;-76
2022/11/13 10:06:17;;;;;;;;;;;;;;;10.67;66.54;97830.88;4869129;29;20653;-76
2022/11/13 10:08:48;;;;;;;8.50;5.88;;;;;;;10.84;66.59;97821.31;4871601;28;20097;-76
2022/11/13 10:11:32;;;;;;;9.60;6.53;;;;;;;10.95;66.56;97824.13;4869942;29;20281;-76
2022/11/13 10:14:01;;;;;;;10.02;5.88;;;;;;;11.09;66.07;97809.03;4870047;29;20178;-76
2022/11/13 10:16:29;;;;;;;10.90;6.90;;;;;;;11.13;65.50;97812.75;4885417;28;20259;-75
2022/11/13 10:19:18;;;;;;;7.30;5.53;;;;;;;11.10;65.62;97810.63;4869771;28;20198;-76
2022/11/13 10:22:15;;;;;;;9.45;6.50;;;;;;;11.47;65.53;97807.66;4866329;29;20373;-76
2022/11/13 10:24:43;;;;;;;7.18;5.63;;;;;;;11.32;65.44;97795.91;4834269;29;20370;-75
2022/11/13 10:27:10;;;;;;;7.18;5.25;;;;;;;11.35;65.00;97784.25;4854067;29;20195;-76
2022/11/13 10:29:36;;;;;;;7.35;6.25;;;;;;;11.49;64.61;97777.69;4863759;29;20384;-76
2022/11/13 10:32:22;;;;;;;6.47;4.70;;;;;;;11.69;64.94;97758.22;4854292;29;20658;-75
2022/11/13 10:34:58;;;;;;;6.88;5.00;;;;;;;11.79;64.45;97761.75;4870261;29;20219;-76
2022/11/13 10:37:42;;;;;;;5.60;4.20;;;;;;;12.10;63.54;97751.03;4869209;29;20199;-76
2022/11/13 10:40:08;;;;;;;6.18;4.43;;;;;;;12.08;63.81;97747.84;4869142;28;20665;-76
2022/11/13 10:42:39;;;;;;;6.95;4.25;;;;;;;12.32;62.74;97743.22;4852362;28;20234;-77
2022/11/13 10:45:15;;;;;;;6.97;4.82;;;;;;;12.53;62.32;97741.66;4851386;29;20195;-76
2022/11/13 10:47:49;;;;;;;4.75;3.70;;;;;;;12.51;62.18;97736.69;4850188;29;20108;-76
2022/11/13 10:50:21;;;;;;;4.60;3.15;;;;;;;12.40;61.40;97729.75;4870169;28;20651;-76
2022/11/13 10:52:48;;;;;;;4.75;3.50;;;;;;;12.51;60.92;97728.84;4870728;29;20297;-76
2022/11/13 10:55:16;;;;;;;5.25;3.65;;;;;;;12.49;60.62;97723.06;4879181;28;20644;-76
2022/11/13 10:57:41;;;;;;;6.25;3.30;;;;;;;12.69;60.30;97724.34;4854526;29;20271;-76
2022/11/13 11:00:25;;;;;;;5.78;3.40;;;;;;;13.09;59.48;97731.03;4868392;29;20563;-76
2022/11/13 11:02:51;;;;;;;4.28;3.38;;;;;;;12.84;58.79;97728.97;4887705;28;20357;-76
2022/11/13 11:05:19;;;;;;;3.65;3.05;;;;;;;12.94;58.70;97729.06;4883572;28;20699;-76
2022/11/13 11:07:44;;;;;;;4.63;3.15;;;;;;;12.86;58.71;97726.88;4867780;29;20171;-75
2022/11/13 11:10:34;;;;;;;5.03;3.25;;;;;;;13.23;58.14;97716.53;4836743;29;20187;-75
2022/11/13 11:13:11;;;;;;;3.97;2.90;;;;;;;13.00;57.33;97711.59;4846270;29;20321;-76
2022/11/13 11:15:56;;;;;;;4.72;3.08;;;;;;;13.22;57.79;97714.16;4862263;28;20250;-76
2022/11/13 11:18:24;;;;;;;2.92;2.63;;;;;;;13.17;57.21;97706.28;4863126;29;20641;-75
2022/11/13 11:20:56;;;;;;;3.95;2.20;;;;;;;13.47;56.82;97690.09;4871738;28;20601;-76
2022/11/13 11:23:42;;;;;;;2.63;2.42;;;;;;;13.55;56.41;97697.47;4840309;28;20589;-75
2022/11/13 11:26:28;;;;;;;3.63;2.22;;;;;;;13.84;55.75;97694.53;4851381;28;20206;-75
2022/11/13 11:29:18;;;;;;;3.40;2.10;;;;;;;14.10;55.13;97686.81;4882734;28;20217;-75